sensor_id;sensor_type;location;lat;lon;timestamp;P1;durP1;ratioP1;P2;durP2;ratioP2
62268;SDS011;56517;51.634;5.566;2023-11-21T00:00:30;35.65;;;18.38;;
62268;SDS011;56517;51.634;5.566;2023-11-21T00:01:51;33.72;;;16.27;;
62268;SDS011;56517;51.634;5.566;2023-11-21T00:03:15;32.45;;;16.55;;
62268;SDS011;56517;51.634;5.566;2023-11-21T00:04:36;30.65;;;16.95;;
62268;SDS011;56517;51.634;5.566;2023-11-21T00:05:58;29.23;;;17.88;;
62268;SDS011;56517;51.634;5.566;2023-11-21T00:07:19;35.10;;;18.08;;
62268;SDS011;56517;51.634;5.566;2023-11-21T00:08:44;37.45;;;17.92;;
62268;SDS011;56517;51.634;5.566;2023-11-21T00:10:06;37.63;;;17.73;;
62268;SDS011;56517;51.634;5.566;2023-11-21T00:11:27;33.33;;;18.60;;
62268;SDS011;56517;51.634;5.566;2023-11-21T00:12:48;38.00;;;18.17;;
62268;SDS011;56517;51.634;5.566;2023-11-21T00:14:11;36.22;;;17.40;;
62268;SDS011;56517;51.634;5.566;2023-11-21T00:15:32;34.08;;;17.33;;
62268;SDS011;56517;51.634;5.566;2023-11-21T00:16:59;29.63;;;16.65;;
62268;SDS011;56517;51.634;5.566;2023-11-21T00:18:20;65.63;;;26.42;;
62268;SDS011;56517;51.634;5.566;2023-11-21T00:19:41;35.47;;;16.70;;
62268;SDS011;56517;51.634;5.566;2023-11-21T00:21:05;33.92;;;17.50;;
62268;SDS011;56517;51.634;5.566;2023-11-21T00:22:26;34.65;;;18.55;;
62268;SDS011;56517;51.634;5.566;2023-11-21T00:23:53;35.40;;;18.10;;
62268;SDS011;56517;51.634;5.566;2023-11-21T00:25:14;34.60;;;17.75;;
62268;SDS011;56517;51.634;5.566;2023-11-21T00:26:38;31.98;;;17.65;;
62268;SDS011;56517;51.634;5.566;2023-11-21T00:27:59;30.92;;;16.73;;
62268;SDS011;56517;51.634;5.566;2023-11-21T00:29:22;34.90;;;17.55;;
62268;SDS011;56517;51.634;5.566;2023-11-21T00:30:43;34.38;;;18.50;;
62268;SDS011;56517;51.634;5.566;2023-11-21T00:32:05;31.45;;;17.38;;
62268;SDS011;56517;51.634;5.566;2023-11-21T00:33:27;39.10;;;18.45;;
62268;SDS011;56517;51.634;5.566;2023-11-21T00:34:48;38.80;;;19.25;;
62268;SDS011;56517;51.634;5.566;2023-11-21T00:36:09;37.10;;;18.20;;
62268;SDS011;56517;51.634;5.566;2023-11-21T00:37:30;34.67;;;18.27;;
62268;SDS011;56517;51.634;5.566;2023-11-21T00:38:53;31.20;;;17.60;;
62268;SDS011;56517;51.634;5.566;2023-11-21T00:40:14;36.38;;;18.33;;
62268;SDS011;56517;51.634;5.566;2023-11-21T00:41:36;32.33;;;17.77;;
62268;SDS011;56517;51.634;5.566;2023-11-21T00:42:58;39.22;;;18.55;;
62268;SDS011;56517;51.634;5.566;2023-11-21T00:44:19;37.28;;;18.63;;
62268;SDS011;56517;51.634;5.566;2023-11-21T00:45:39;31.27;;;18.25;;
62268;SDS011;56517;51.634;5.566;2023-11-21T00:47:04;36.53;;;18.25;;
62268;SDS011;56517;51.634;5.566;2023-11-21T00:48:25;33.30;;;18.25;;
62268;SDS011;56517;51.634;5.566;2023-11-21T00:49:46;36.70;;;18.13;;
62268;SDS011;56517;51.634;5.566;2023-11-21T00:51:07;40.33;;;18.15;;
62268;SDS011;56517;51.634;5.566;2023-11-21T00:52:28;40.55;;;19.55;;
62268;SDS011;56517;51.634;5.566;2023-11-21T00:53:49;35.10;;;18.40;;
62268;SDS011;56517;51.634;5.566;2023-11-21T00:55:10;38.55;;;18.75;;
62268;SDS011;56517;51.634;5.566;2023-11-21T00:56:32;33.95;;;16.25;;
62268;SDS011;56517;51.634;5.566;2023-11-21T00:57:53;33.25;;;15.93;;
62268;SDS011;56517;51.634;5.566;2023-11-21T00:59:14;30.30;;;16.30;;
62268;SDS011;56517;51.634;5.566;2023-11-21T01:00:41;27.98;;;16.48;;
62268;SDS011;56517;51.634;5.566;2023-11-21T01:02:01;28.65;;;15.70;;
62268;SDS011;56517;51.634;5.566;2023-11-21T01:03:25;29.17;;;15.40;;
62268;SDS011;56517;51.634;5.566;2023-11-21T01:04:47;37.25;;;14.85;;
62268;SDS011;56517;51.634;5.566;2023-11-21T01:06:08;29.58;;;14.68;;
62268;SDS011;56517;51.634;5.566;2023-11-21T01:07:30;28.60;;;15.68;;
62268;SDS011;56517;51.634;5.566;2023-11-21T01:08:51;29.85;;;16.05;;
62268;SDS011;56517;51.634;5.566;2023-11-21T01:10:11;25.70;;;14.95;;
62268;SDS011;56517;51.634;5.566;2023-11-21T01:11:33;29.15;;;15.68;;
62268;SDS011;56517;51.634;5.566;2023-11-21T01:12:56;24.25;;;16.38;;
62268;SDS011;56517;51.634;5.566;2023-11-21T01:14:23;29.17;;;16.60;;
62268;SDS011;56517;51.634;5.566;2023-11-21T01:15:44;22.83;;;15.35;;
62268;SDS011;56517;51.634;5.566;2023-11-21T01:17:11;26.75;;;14.45;;
62268;SDS011;56517;51.634;5.566;2023-11-21T01:18:32;26.13;;;15.90;;
62268;SDS011;56517;51.634;5.566;2023-11-21T01:19:53;23.83;;;14.73;;
62268;SDS011;56517;51.634;5.566;2023-11-21T01:21:14;23.17;;;15.77;;
62268;SDS011;56517;51.634;5.566;2023-11-21T01:22:35;19.27;;;15.00;;
62268;SDS011;56517;51.634;5.566;2023-11-21T01:23:56;25.02;;;15.95;;
62268;SDS011;56517;51.634;5.566;2023-11-21T01:25:17;26.17;;;14.57;;
62268;SDS011;56517;51.634;5.566;2023-11-21T01:26:38;53.00;;;14.85;;
62268;SDS011;56517;51.634;5.566;2023-11-21T01:27:59;66.78;;;15.57;;
62268;SDS011;56517;51.634;5.566;2023-11-21T01:29:20;27.65;;;14.48;;
62268;SDS011;56517;51.634;5.566;2023-11-21T01:30:40;19.25;;;13.80;;
62268;SDS011;56517;51.634;5.566;2023-11-21T01:32:02;37.53;;;13.57;;
62268;SDS011;56517;51.634;5.566;2023-11-21T01:33:23;56.92;;;14.93;;
62268;SDS011;56517;51.634;5.566;2023-11-21T01:34:45;44.60;;;13.43;;
62268;SDS011;56517;51.634;5.566;2023-11-21T01:36:08;71.50;;;14.80;;
62268;SDS011;56517;51.634;5.566;2023-11-21T01:37:29;26.58;;;13.02;;
62268;SDS011;56517;51.634;5.566;2023-11-21T01:38:52;39.63;;;15.23;;
62268;SDS011;56517;51.634;5.566;2023-11-21T01:40:13;23.33;;;12.85;;
62268;SDS011;56517;51.634;5.566;2023-11-21T01:41:34;21.90;;;11.93;;
62268;SDS011;56517;51.634;5.566;2023-11-21T01:42:55;28.50;;;12.90;;
62268;SDS011;56517;51.634;5.566;2023-11-21T01:44:16;23.85;;;12.93;;
62268;SDS011;56517;51.634;5.566;2023-11-21T01:45:37;28.67;;;13.10;;
62268;SDS011;56517;51.634;5.566;2023-11-21T01:47:01;39.17;;;13.35;;
62268;SDS011;56517;51.634;5.566;2023-11-21T01:48:25;44.75;;;12.48;;
62268;SDS011;56517;51.634;5.566;2023-11-21T01:49:47;53.13;;;14.63;;
62268;SDS011;56517;51.634;5.566;2023-11-21T01:51:10;34.63;;;14.30;;
62268;SDS011;56517;51.634;5.566;2023-11-21T01:52:30;64.18;;;16.35;;
62268;SDS011;56517;51.634;5.566;2023-11-21T01:53:51;44.65;;;13.90;;
62268;SDS011;56517;51.634;5.566;2023-11-21T01:55:14;51.03;;;15.55;;
62268;SDS011;56517;51.634;5.566;2023-11-21T01:56:35;42.45;;;13.93;;
62268;SDS011;56517;51.634;5.566;2023-11-21T01:57:56;35.05;;;13.55;;
62268;SDS011;56517;51.634;5.566;2023-11-21T01:59:20;38.70;;;14.55;;
62268;SDS011;56517;51.634;5.566;2023-11-21T02:00:44;83.13;;;15.65;;
62268;SDS011;56517;51.634;5.566;2023-11-21T02:02:06;25.65;;;13.50;;
62268;SDS011;56517;51.634;5.566;2023-11-21T02:04:48;32.42;;;14.95;;
62268;SDS011;56517;51.634;5.566;2023-11-21T02:06:11;63.92;;;15.70;;
62268;SDS011;56517;51.634;5.566;2023-11-21T02:07:32;31.55;;;15.80;;
62268;SDS011;56517;51.634;5.566;2023-11-21T02:08:53;36.10;;;19.58;;
62268;SDS011;56517;51.634;5.566;2023-11-21T02:10:15;32.67;;;14.98;;
62268;SDS011;56517;51.634;5.566;2023-11-21T02:11:36;37.72;;;16.50;;
62268;SDS011;56517;51.634;5.566;2023-11-21T02:12:59;52.78;;;16.15;;
62268;SDS011;56517;51.634;5.566;2023-11-21T02:14:26;35.58;;;16.40;;
62268;SDS011;56517;51.634;5.566;2023-11-21T02:15:48;59.15;;;16.35;;
62268;SDS011;56517;51.634;5.566;2023-11-21T02:17:12;61.00;;;18.02;;
62268;SDS011;56517;51.634;5.566;2023-11-21T02:18:34;52.53;;;17.30;;
62268;SDS011;56517;51.634;5.566;2023-11-21T02:19:54;42.28;;;17.85;;
62268;SDS011;56517;51.634;5.566;2023-11-21T02:21:16;35.78;;;17.10;;
62268;SDS011;56517;51.634;5.566;2023-11-21T02:22:37;41.78;;;16.42;;
62268;SDS011;56517;51.634;5.566;2023-11-21T02:24:01;43.78;;;18.75;;
62268;SDS011;56517;51.634;5.566;2023-11-21T02:25:22;38.45;;;18.15;;
62268;SDS011;56517;51.634;5.566;2023-11-21T02:26:43;59.97;;;18.90;;
62268;SDS011;56517;51.634;5.566;2023-11-21T02:28:04;67.43;;;18.02;;
62268;SDS011;56517;51.634;5.566;2023-11-21T02:29:27;58.22;;;17.63;;
62268;SDS011;56517;51.634;5.566;2023-11-21T02:30:54;77.80;;;19.23;;
62268;SDS011;56517;51.634;5.566;2023-11-21T02:32:16;76.90;;;18.85;;
62268;SDS011;56517;51.634;5.566;2023-11-21T02:33:47;62.08;;;18.63;;
62268;SDS011;56517;51.634;5.566;2023-11-21T02:35:08;93.32;;;20.60;;
62268;SDS011;56517;51.634;5.566;2023-11-21T02:36:29;90.85;;;21.17;;
62268;SDS011;56517;51.634;5.566;2023-11-21T02:37:52;72.53;;;20.67;;
62268;SDS011;56517;51.634;5.566;2023-11-21T02:39:14;58.03;;;16.63;;
62268;SDS011;56517;51.634;5.566;2023-11-21T02:40:35;58.03;;;19.13;;
62268;SDS011;56517;51.634;5.566;2023-11-21T02:41:55;62.17;;;18.48;;
62268;SDS011;56517;51.634;5.566;2023-11-21T02:43:16;78.97;;;18.13;;
62268;SDS011;56517;51.634;5.566;2023-11-21T02:44:37;52.28;;;18.92;;
62268;SDS011;56517;51.634;5.566;2023-11-21T02:47:23;41.50;;;18.08;;
62268;SDS011;56517;51.634;5.566;2023-11-21T02:48:45;47.30;;;17.08;;
62268;SDS011;56517;51.634;5.566;2023-11-21T02:51:29;80.28;;;19.38;;
62268;SDS011;56517;51.634;5.566;2023-11-21T02:52:53;42.47;;;17.30;;
62268;SDS011;56517;51.634;5.566;2023-11-21T02:54:15;57.83;;;18.67;;
62268;SDS011;56517;51.634;5.566;2023-11-21T02:55:37;48.75;;;19.80;;
62268;SDS011;56517;51.634;5.566;2023-11-21T02:56:58;40.88;;;18.52;;
62268;SDS011;56517;51.634;5.566;2023-11-21T02:58:19;69.22;;;20.30;;
62268;SDS011;56517;51.634;5.566;2023-11-21T02:59:40;50.55;;;18.38;;
62268;SDS011;56517;51.634;5.566;2023-11-21T03:01:03;90.40;;;21.15;;
62268;SDS011;56517;51.634;5.566;2023-11-21T03:02:28;63.15;;;20.88;;
62268;SDS011;56517;51.634;5.566;2023-11-21T03:03:49;77.68;;;21.60;;
62268;SDS011;56517;51.634;5.566;2023-11-21T03:05:11;69.50;;;20.73;;
62268;SDS011;56517;51.634;5.566;2023-11-21T03:06:32;51.78;;;19.95;;
62268;SDS011;56517;51.634;5.566;2023-11-21T03:07:54;44.95;;;18.08;;
62268;SDS011;56517;51.634;5.566;2023-11-21T03:09:16;85.68;;;22.23;;
62268;SDS011;56517;51.634;5.566;2023-11-21T03:10:37;60.67;;;18.92;;
62268;SDS011;56517;51.634;5.566;2023-11-21T03:11:58;66.63;;;19.80;;
62268;SDS011;56517;51.634;5.566;2023-11-21T03:13:19;47.65;;;19.80;;
62268;SDS011;56517;51.634;5.566;2023-11-21T03:14:43;46.45;;;20.42;;
62268;SDS011;56517;51.634;5.566;2023-11-21T03:16:04;52.03;;;19.52;;
62268;SDS011;56517;51.634;5.566;2023-11-21T03:17:25;45.15;;;19.52;;
62268;SDS011;56517;51.634;5.566;2023-11-21T03:18:46;57.03;;;20.25;;
62268;SDS011;56517;51.634;5.566;2023-11-21T03:20:07;46.55;;;19.63;;
62268;SDS011;56517;51.634;5.566;2023-11-21T03:21:31;44.67;;;19.58;;
62268;SDS011;56517;51.634;5.566;2023-11-21T03:22:52;57.95;;;20.33;;
62268;SDS011;56517;51.634;5.566;2023-11-21T03:24:13;39.15;;;18.75;;
62268;SDS011;56517;51.634;5.566;2023-11-21T03:25:36;41.70;;;18.50;;
62268;SDS011;56517;51.634;5.566;2023-11-21T03:26:57;32.35;;;18.10;;
62268;SDS011;56517;51.634;5.566;2023-11-21T03:28:18;50.95;;;19.23;;
62268;SDS011;56517;51.634;5.566;2023-11-21T03:29:39;33.88;;;18.42;;
62268;SDS011;56517;51.634;5.566;2023-11-21T03:31:00;48.33;;;19.10;;
62268;SDS011;56517;51.634;5.566;2023-11-21T03:32:21;44.00;;;18.38;;
62268;SDS011;56517;51.634;5.566;2023-11-21T03:33:42;51.60;;;19.02;;
62268;SDS011;56517;51.634;5.566;2023-11-21T03:35:03;37.15;;;18.77;;
62268;SDS011;56517;51.634;5.566;2023-11-21T03:36:24;38.13;;;18.65;;
62268;SDS011;56517;51.634;5.566;2023-11-21T03:37:46;42.33;;;19.23;;
62268;SDS011;56517;51.634;5.566;2023-11-21T03:39:07;48.15;;;19.95;;
62268;SDS011;56517;51.634;5.566;2023-11-21T03:40:27;42.92;;;18.98;;
62268;SDS011;56517;51.634;5.566;2023-11-21T03:41:48;41.45;;;19.23;;
62268;SDS011;56517;51.634;5.566;2023-11-21T03:43:09;40.75;;;19.42;;
62268;SDS011;56517;51.634;5.566;2023-11-21T03:44:30;54.80;;;20.40;;
62268;SDS011;56517;51.634;5.566;2023-11-21T03:45:51;49.28;;;21.00;;
62268;SDS011;56517;51.634;5.566;2023-11-21T03:47:12;39.55;;;19.27;;
62268;SDS011;56517;51.634;5.566;2023-11-21T03:48:33;39.47;;;20.92;;
62268;SDS011;56517;51.634;5.566;2023-11-21T03:49:55;45.50;;;20.15;;
62268;SDS011;56517;51.634;5.566;2023-11-21T03:51:18;43.97;;;20.90;;
62268;SDS011;56517;51.634;5.566;2023-11-21T03:52:39;40.38;;;21.63;;
62268;SDS011;56517;51.634;5.566;2023-11-21T03:54:00;48.72;;;19.17;;
62268;SDS011;56517;51.634;5.566;2023-11-21T03:55:20;43.90;;;19.83;;
62268;SDS011;56517;51.634;5.566;2023-11-21T03:56:41;45.15;;;19.92;;
62268;SDS011;56517;51.634;5.566;2023-11-21T03:58:02;45.72;;;20.38;;
62268;SDS011;56517;51.634;5.566;2023-11-21T03:59:23;55.40;;;23.70;;
62268;SDS011;56517;51.634;5.566;2023-11-21T04:00:46;43.25;;;20.05;;
62268;SDS011;56517;51.634;5.566;2023-11-21T04:02:08;34.60;;;19.33;;
62268;SDS011;56517;51.634;5.566;2023-11-21T04:03:32;43.40;;;20.60;;
62268;SDS011;56517;51.634;5.566;2023-11-21T04:04:53;43.60;;;17.65;;
62268;SDS011;56517;51.634;5.566;2023-11-21T04:06:14;45.55;;;20.02;;
62268;SDS011;56517;51.634;5.566;2023-11-21T04:07:36;51.45;;;19.52;;
62268;SDS011;56517;51.634;5.566;2023-11-21T04:08:58;35.88;;;18.55;;
62268;SDS011;56517;51.634;5.566;2023-11-21T04:10:19;49.03;;;20.02;;
62268;SDS011;56517;51.634;5.566;2023-11-21T04:11:40;47.22;;;18.20;;
62268;SDS011;56517;51.634;5.566;2023-11-21T04:13:01;38.08;;;19.58;;
62268;SDS011;56517;51.634;5.566;2023-11-21T04:14:22;50.17;;;19.55;;
62268;SDS011;56517;51.634;5.566;2023-11-21T04:15:43;43.58;;;19.08;;
62268;SDS011;56517;51.634;5.566;2023-11-21T04:17:04;39.15;;;19.75;;
62268;SDS011;56517;51.634;5.566;2023-11-21T04:18:25;43.65;;;19.77;;
62268;SDS011;56517;51.634;5.566;2023-11-21T04:19:47;43.15;;;20.42;;
62268;SDS011;56517;51.634;5.566;2023-11-21T04:21:08;44.78;;;20.67;;
62268;SDS011;56517;51.634;5.566;2023-11-21T04:22:29;51.33;;;20.55;;
62268;SDS011;56517;51.634;5.566;2023-11-21T04:23:51;41.97;;;19.05;;
62268;SDS011;56517;51.634;5.566;2023-11-21T04:25:13;38.00;;;20.30;;
62268;SDS011;56517;51.634;5.566;2023-11-21T04:26:34;43.42;;;20.95;;
62268;SDS011;56517;51.634;5.566;2023-11-21T04:27:55;38.40;;;19.30;;
62268;SDS011;56517;51.634;5.566;2023-11-21T04:29:16;41.08;;;21.02;;
62268;SDS011;56517;51.634;5.566;2023-11-21T04:30:40;47.58;;;19.23;;
62268;SDS011;56517;51.634;5.566;2023-11-21T04:32:01;63.25;;;21.02;;
62268;SDS011;56517;51.634;5.566;2023-11-21T04:33:23;46.85;;;18.73;;
62268;SDS011;56517;51.634;5.566;2023-11-21T04:34:44;34.60;;;18.10;;
62268;SDS011;56517;51.634;5.566;2023-11-21T04:36:05;52.45;;;19.13;;
62268;SDS011;56517;51.634;5.566;2023-11-21T04:37:26;64.53;;;20.70;;
62268;SDS011;56517;51.634;5.566;2023-11-21T04:38:47;56.78;;;20.60;;
62268;SDS011;56517;51.634;5.566;2023-11-21T04:40:08;67.60;;;20.73;;
62268;SDS011;56517;51.634;5.566;2023-11-21T04:41:29;35.38;;;18.08;;
62268;SDS011;56517;51.634;5.566;2023-11-21T04:42:52;47.40;;;19.40;;
62268;SDS011;56517;51.634;5.566;2023-11-21T04:44:13;47.83;;;18.80;;
62268;SDS011;56517;51.634;5.566;2023-11-21T04:45:37;50.33;;;19.35;;
62268;SDS011;56517;51.634;5.566;2023-11-21T04:46:59;47.58;;;19.15;;
62268;SDS011;56517;51.634;5.566;2023-11-21T04:48:20;39.08;;;19.10;;
62268;SDS011;56517;51.634;5.566;2023-11-21T04:49:43;59.85;;;23.05;;
62268;SDS011;56517;51.634;5.566;2023-11-21T04:51:07;44.03;;;19.33;;
62268;SDS011;56517;51.634;5.566;2023-11-21T04:52:28;39.88;;;16.67;;
62268;SDS011;56517;51.634;5.566;2023-11-21T04:53:49;38.70;;;18.15;;
62268;SDS011;56517;51.634;5.566;2023-11-21T04:55:12;39.83;;;18.35;;
62268;SDS011;56517;51.634;5.566;2023-11-21T04:57:55;41.53;;;20.25;;
62268;SDS011;56517;51.634;5.566;2023-11-21T04:59:16;46.97;;;19.65;;
62268;SDS011;56517;51.634;5.566;2023-11-21T05:00:37;35.42;;;19.58;;
62268;SDS011;56517;51.634;5.566;2023-11-21T05:01:58;37.28;;;18.27;;
62268;SDS011;56517;51.634;5.566;2023-11-21T05:03:20;47.78;;;18.88;;
62268;SDS011;56517;51.634;5.566;2023-11-21T05:04:41;38.53;;;19.92;;
62268;SDS011;56517;51.634;5.566;2023-11-21T05:06:03;30.83;;;17.52;;
62268;SDS011;56517;51.634;5.566;2023-11-21T05:08:49;34.45;;;17.38;;
62268;SDS011;56517;51.634;5.566;2023-11-21T05:10:10;35.58;;;19.10;;
62268;SDS011;56517;51.634;5.566;2023-11-21T05:12:53;33.10;;;17.30;;
62268;SDS011;56517;51.634;5.566;2023-11-21T05:14:17;38.03;;;19.75;;
62268;SDS011;56517;51.634;5.566;2023-11-21T05:15:39;33.03;;;19.52;;
62268;SDS011;56517;51.634;5.566;2023-11-21T05:17:00;33.80;;;18.67;;
62268;SDS011;56517;51.634;5.566;2023-11-21T05:18:22;39.70;;;19.98;;
62268;SDS011;56517;51.634;5.566;2023-11-21T05:19:43;51.58;;;24.13;;
62268;SDS011;56517;51.634;5.566;2023-11-21T05:21:06;36.33;;;19.70;;
62268;SDS011;56517;51.634;5.566;2023-11-21T05:22:27;35.78;;;19.95;;
62268;SDS011;56517;51.634;5.566;2023-11-21T05:23:48;33.85;;;19.35;;
62268;SDS011;56517;51.634;5.566;2023-11-21T05:25:09;41.08;;;20.27;;
62268;SDS011;56517;51.634;5.566;2023-11-21T05:26:31;37.38;;;19.73;;
62268;SDS011;56517;51.634;5.566;2023-11-21T05:27:52;32.35;;;19.60;;
62268;SDS011;56517;51.634;5.566;2023-11-21T05:29:15;33.45;;;19.80;;
62268;SDS011;56517;51.634;5.566;2023-11-21T05:30:36;34.75;;;18.77;;
62268;SDS011;56517;51.634;5.566;2023-11-21T05:31:57;39.58;;;19.75;;
62268;SDS011;56517;51.634;5.566;2023-11-21T05:33:18;36.70;;;20.05;;
62268;SDS011;56517;51.634;5.566;2023-11-21T05:34:39;36.57;;;20.80;;
62268;SDS011;56517;51.634;5.566;2023-11-21T05:36:00;33.95;;;19.10;;
62268;SDS011;56517;51.634;5.566;2023-11-21T05:37:21;32.03;;;19.75;;
62268;SDS011;56517;51.634;5.566;2023-11-21T05:38:43;29.98;;;17.55;;
62268;SDS011;56517;51.634;5.566;2023-11-21T05:40:07;40.88;;;19.25;;
62268;SDS011;56517;51.634;5.566;2023-11-21T05:41:28;32.35;;;18.30;;
62268;SDS011;56517;51.634;5.566;2023-11-21T05:42:49;36.55;;;19.10;;
62268;SDS011;56517;51.634;5.566;2023-11-21T05:44:12;32.38;;;17.25;;
62268;SDS011;56517;51.634;5.566;2023-11-21T05:45:35;33.38;;;19.35;;
62268;SDS011;56517;51.634;5.566;2023-11-21T05:46:55;36.70;;;19.58;;
62268;SDS011;56517;51.634;5.566;2023-11-21T05:48:18;32.70;;;19.52;;
62268;SDS011;56517;51.634;5.566;2023-11-21T05:49:39;35.40;;;20.85;;
62268;SDS011;56517;51.634;5.566;2023-11-21T05:51:00;36.05;;;20.20;;
62268;SDS011;56517;51.634;5.566;2023-11-21T05:52:22;34.97;;;18.48;;
62268;SDS011;56517;51.634;5.566;2023-11-21T05:53:43;36.38;;;19.35;;
62268;SDS011;56517;51.634;5.566;2023-11-21T05:55:04;37.30;;;21.92;;
62268;SDS011;56517;51.634;5.566;2023-11-21T05:56:28;29.98;;;19.30;;
62268;SDS011;56517;51.634;5.566;2023-11-21T05:57:49;35.55;;;19.10;;
62268;SDS011;56517;51.634;5.566;2023-11-21T05:59:09;34.25;;;19.23;;
62268;SDS011;56517;51.634;5.566;2023-11-21T06:00:34;32.30;;;19.53;;
62268;SDS011;56517;51.634;5.566;2023-11-21T06:01:55;35.70;;;20.13;;
62268;SDS011;56517;51.634;5.566;2023-11-21T06:03:16;32.30;;;20.08;;
62268;SDS011;56517;51.634;5.566;2023-11-21T06:04:37;37.50;;;24.65;;
62268;SDS011;56517;51.634;5.566;2023-11-21T06:05:58;34.67;;;23.27;;
62268;SDS011;56517;51.634;5.566;2023-11-21T06:07:21;43.50;;;23.23;;
62268;SDS011;56517;51.634;5.566;2023-11-21T06:08:42;35.90;;;19.83;;
62268;SDS011;56517;51.634;5.566;2023-11-21T06:10:04;34.45;;;21.27;;
62268;SDS011;56517;51.634;5.566;2023-11-21T06:11:28;34.67;;;19.55;;
62268;SDS011;56517;51.634;5.566;2023-11-21T06:12:49;32.78;;;19.55;;
62268;SDS011;56517;51.634;5.566;2023-11-21T06:14:10;35.10;;;18.95;;
62268;SDS011;56517;51.634;5.566;2023-11-21T06:15:31;33.97;;;19.30;;
62268;SDS011;56517;51.634;5.566;2023-11-21T06:16:52;32.47;;;19.42;;
62268;SDS011;56517;51.634;5.566;2023-11-21T06:18:13;40.63;;;21.15;;
62268;SDS011;56517;51.634;5.566;2023-11-21T06:19:37;35.80;;;20.38;;
62268;SDS011;56517;51.634;5.566;2023-11-21T06:20:57;33.27;;;20.03;;
62268;SDS011;56517;51.634;5.566;2023-11-21T06:22:21;38.92;;;20.60;;
62268;SDS011;56517;51.634;5.566;2023-11-21T06:23:42;33.83;;;20.20;;
62268;SDS011;56517;51.634;5.566;2023-11-21T06:25:03;35.67;;;19.13;;
62268;SDS011;56517;51.634;5.566;2023-11-21T06:26:26;35.58;;;20.60;;
62268;SDS011;56517;51.634;5.566;2023-11-21T06:27:47;35.75;;;20.65;;
62268;SDS011;56517;51.634;5.566;2023-11-21T06:29:08;37.72;;;22.50;;
62268;SDS011;56517;51.634;5.566;2023-11-21T06:30:30;32.13;;;19.17;;
62268;SDS011;56517;51.634;5.566;2023-11-21T06:31:51;32.05;;;19.85;;
62268;SDS011;56517;51.634;5.566;2023-11-21T06:33:15;32.63;;;19.90;;
62268;SDS011;56517;51.634;5.566;2023-11-21T06:34:37;35.63;;;20.50;;
62268;SDS011;56517;51.634;5.566;2023-11-21T06:35:57;38.97;;;21.20;;
62268;SDS011;56517;51.634;5.566;2023-11-21T06:37:19;38.30;;;19.65;;
62268;SDS011;56517;51.634;5.566;2023-11-21T06:38:41;38.63;;;20.65;;
62268;SDS011;56517;51.634;5.566;2023-11-21T06:40:02;31.98;;;19.60;;
62268;SDS011;56517;51.634;5.566;2023-11-21T06:41:24;31.42;;;20.13;;
62268;SDS011;56517;51.634;5.566;2023-11-21T06:42:45;39.53;;;20.60;;
62268;SDS011;56517;51.634;5.566;2023-11-21T06:44:07;36.75;;;20.15;;
62268;SDS011;56517;51.634;5.566;2023-11-21T06:45:29;35.45;;;20.08;;
62268;SDS011;56517;51.634;5.566;2023-11-21T06:46:54;41.05;;;21.73;;
62268;SDS011;56517;51.634;5.566;2023-11-21T06:48:15;44.40;;;22.08;;
62268;SDS011;56517;51.634;5.566;2023-11-21T06:49:38;40.15;;;20.27;;
62268;SDS011;56517;51.634;5.566;2023-11-21T06:50:59;38.72;;;21.98;;
62268;SDS011;56517;51.634;5.566;2023-11-21T06:52:20;33.10;;;19.77;;
62268;SDS011;56517;51.634;5.566;2023-11-21T06:53:41;40.67;;;19.90;;
62268;SDS011;56517;51.634;5.566;2023-11-21T06:55:02;42.28;;;21.50;;
62268;SDS011;56517;51.634;5.566;2023-11-21T06:56:23;31.98;;;19.60;;
62268;SDS011;56517;51.634;5.566;2023-11-21T06:57:44;39.97;;;22.08;;
62268;SDS011;56517;51.634;5.566;2023-11-21T06:59:05;34.88;;;19.20;;
62268;SDS011;56517;51.634;5.566;2023-11-21T07:00:26;40.70;;;21.02;;
62268;SDS011;56517;51.634;5.566;2023-11-21T07:01:50;34.63;;;19.48;;
62268;SDS011;56517;51.634;5.566;2023-11-21T07:03:12;40.22;;;20.08;;
62268;SDS011;56517;51.634;5.566;2023-11-21T07:04:33;40.97;;;21.60;;
62268;SDS011;56517;51.634;5.566;2023-11-21T07:05:54;41.97;;;20.15;;
62268;SDS011;56517;51.634;5.566;2023-11-21T07:07:15;40.03;;;20.17;;
62268;SDS011;56517;51.634;5.566;2023-11-21T07:08:36;36.33;;;18.85;;
62268;SDS011;56517;51.634;5.566;2023-11-21T07:09:57;35.85;;;20.70;;
62268;SDS011;56517;51.634;5.566;2023-11-21T07:11:18;39.75;;;21.40;;
62268;SDS011;56517;51.634;5.566;2023-11-21T07:12:39;43.35;;;20.52;;
62268;SDS011;56517;51.634;5.566;2023-11-21T07:14:00;43.88;;;20.17;;
62268;SDS011;56517;51.634;5.566;2023-11-21T07:15:28;34.95;;;19.88;;
62268;SDS011;56517;51.634;5.566;2023-11-21T07:16:49;39.17;;;20.73;;
62268;SDS011;56517;51.634;5.566;2023-11-21T07:18:10;37.75;;;21.27;;
62268;SDS011;56517;51.634;5.566;2023-11-21T07:20:52;40.97;;;20.88;;
62268;SDS011;56517;51.634;5.566;2023-11-21T07:22:14;43.20;;;21.13;;
62268;SDS011;56517;51.634;5.566;2023-11-21T07:23:35;41.55;;;22.40;;
62268;SDS011;56517;51.634;5.566;2023-11-21T07:24:58;42.13;;;22.15;;
62268;SDS011;56517;51.634;5.566;2023-11-21T07:27:40;47.17;;;21.02;;
62268;SDS011;56517;51.634;5.566;2023-11-21T07:29:02;45.60;;;20.77;;
62268;SDS011;56517;51.634;5.566;2023-11-21T07:30:27;57.22;;;28.63;;
62268;SDS011;56517;51.634;5.566;2023-11-21T07:31:48;53.38;;;23.13;;
62268;SDS011;56517;51.634;5.566;2023-11-21T07:33:09;40.38;;;20.15;;
62268;SDS011;56517;51.634;5.566;2023-11-21T07:34:30;49.55;;;20.95;;
62268;SDS011;56517;51.634;5.566;2023-11-21T07:35:52;49.55;;;21.55;;
62268;SDS011;56517;51.634;5.566;2023-11-21T07:37:16;46.58;;;22.20;;
62268;SDS011;56517;51.634;5.566;2023-11-21T07:38:38;44.08;;;21.52;;
62268;SDS011;56517;51.634;5.566;2023-11-21T07:39:59;52.65;;;22.98;;
62268;SDS011;56517;51.634;5.566;2023-11-21T07:41:20;45.88;;;21.33;;
62268;SDS011;56517;51.634;5.566;2023-11-21T07:42:41;47.88;;;22.88;;
62268;SDS011;56517;51.634;5.566;2023-11-21T07:44:03;45.05;;;20.05;;
62268;SDS011;56517;51.634;5.566;2023-11-21T07:45:24;46.65;;;21.92;;
62268;SDS011;56517;51.634;5.566;2023-11-21T07:46:50;49.00;;;21.38;;
62268;SDS011;56517;51.634;5.566;2023-11-21T07:48:11;47.97;;;19.90;;
62268;SDS011;56517;51.634;5.566;2023-11-21T07:49:35;46.83;;;20.70;;
62268;SDS011;56517;51.634;5.566;2023-11-21T07:50:56;43.90;;;19.00;;
62268;SDS011;56517;51.634;5.566;2023-11-21T07:52:17;44.20;;;19.83;;
62268;SDS011;56517;51.634;5.566;2023-11-21T07:53:39;48.22;;;20.10;;
62268;SDS011;56517;51.634;5.566;2023-11-21T07:55:04;46.90;;;21.35;;
62268;SDS011;56517;51.634;5.566;2023-11-21T07:56:25;48.58;;;20.17;;
62268;SDS011;56517;51.634;5.566;2023-11-21T07:57:46;42.38;;;21.20;;
62268;SDS011;56517;51.634;5.566;2023-11-21T07:59:16;51.90;;;22.27;;
62268;SDS011;56517;51.634;5.566;2023-11-21T08:00:38;44.78;;;22.10;;
62268;SDS011;56517;51.634;5.566;2023-11-21T08:02:00;47.75;;;21.80;;
62268;SDS011;56517;51.634;5.566;2023-11-21T08:03:23;43.45;;;21.58;;
62268;SDS011;56517;51.634;5.566;2023-11-21T08:04:48;40.15;;;20.48;;
62268;SDS011;56517;51.634;5.566;2023-11-21T08:06:12;44.40;;;20.98;;
62268;SDS011;56517;51.634;5.566;2023-11-21T08:07:37;48.90;;;22.20;;
62268;SDS011;56517;51.634;5.566;2023-11-21T08:08:58;46.28;;;21.30;;